sensor_id;sensor_type;location;lat;lon;timestamp;temperature;humidity
2062;DHT22;11070;51.336;12.340;2023-11-19T00:00:31;5.50;99.90
2062;DHT22;11070;51.336;12.340;2023-11-19T00:02:56;5.50;99.90
2062;DHT22;11070;51.336;12.340;2023-11-19T00:05:22;5.50;99.90
2062;DHT22;11070;51.336;12.340;2023-11-19T00:07:48;5.50;99.90
2062;DHT22;11070;51.336;12.340;2023-11-19T00:10:14;5.50;99.90
2062;DHT22;11070;51.336;12.340;2023-11-19T00:12:46;5.50;99.90
2062;DHT22;11070;51.336;12.340;2023-11-19T00:15:13;5.50;99.90
2062;DHT22;11070;51.336;12.340;2023-11-19T00:17:42;5.40;99.90
2062;DHT22;11070;51.336;12.340;2023-11-19T00:20:12;5.30;99.90
2062;DHT22;11070;51.336;12.340;2023-11-19T00:22:39;5.30;99.90
2062;DHT22;11070;51.336;12.340;2023-11-19T00:25:05;5.30;99.90
2062;DHT22;11070;51.336;12.340;2023-11-19T00:27:31;5.30;99.90
2062;DHT22;11070;51.336;12.340;2023-11-19T00:29:57;5.30;99.90
2062;DHT22;11070;51.336;12.340;2023-11-19T00:32:23;5.30;99.90
2062;DHT22;11070;51.336;12.340;2023-11-19T00:34:48;5.20;99.90
2062;DHT22;11070;51.336;12.340;2023-11-19T00:37:14;5.20;99.90
2062;DHT22;11070;51.336;12.340;2023-11-19T00:39:41;5.20;99.90
2062;DHT22;11070;51.336;12.340;2023-11-19T00:42:07;5.20;99.90
2062;DHT22;11070;51.336;12.340;2023-11-19T00:44:33;5.20;99.90
2062;DHT22;11070;51.336;12.340;2023-11-19T00:46:59;5.20;99.90
2062;DHT22;11070;51.336;12.340;2023-11-19T00:49:25;5.20;99.90
2062;DHT22;11070;51.336;12.340;2023-11-19T00:51:51;5.20;99.90
2062;DHT22;11070;51.336;12.340;2023-11-19T00:54:17;5.20;99.90
2062;DHT22;11070;51.336;12.340;2023-11-19T00:56:42;5.20;99.90
2062;DHT22;11070;51.336;12.340;2023-11-19T00:59:08;5.20;99.90
2062;DHT22;11070;51.336;12.340;2023-11-19T01:01:34;5.20;99.90
2062;DHT22;11070;51.336;12.340;2023-11-19T01:03:59;5.20;99.90
2062;DHT22;11070;51.336;12.340;2023-11-19T01:06:29;5.20;99.90
2062;DHT22;11070;51.336;12.340;2023-11-19T01:08:55;5.20;99.90
2062;DHT22;11070;51.336;12.340;2023-11-19T01:11:25;5.20;99.90
2062;DHT22;11070;51.336;12.340;2023-11-19T01:13:51;5.20;99.90
2062;DHT22;11070;51.336;12.340;2023-11-19T01:16:18;5.20;99.90
2062;DHT22;11070;51.336;12.340;2023-11-19T01:18:44;5.20;99.90
2062;DHT22;11070;51.336;12.340;2023-11-19T01:21:12;5.20;99.90
2062;DHT22;11070;51.336;12.340;2023-11-19T01:23:37;5.20;99.90
2062;DHT22;11070;51.336;12.340;2023-11-19T01:26:03;5.20;99.90
2062;DHT22;11070;51.336;12.340;2023-11-19T01:28:31;5.20;99.90
2062;DHT22;11070;51.336;12.340;2023-11-19T01:30:56;5.20;99.90
2062;DHT22;11070;51.336;12.340;2023-11-19T01:33:22;5.30;99.90
2062;DHT22;11070;51.336;12.340;2023-11-19T01:35:48;5.30;99.90
2062;DHT22;11070;51.336;12.340;2023-11-19T01:38:13;5.30;99.90
2062;DHT22;11070;51.336;12.340;2023-11-19T01:40:40;5.30;99.90
2062;DHT22;11070;51.336;12.340;2023-11-19T01:43:05;5.30;99.90
2062;DHT22;11070;51.336;12.340;2023-11-19T01:45:31;5.30;99.90
2062;DHT22;11070;51.336;12.340;2023-11-19T01:48:00;5.30;99.90
2062;DHT22;11070;51.336;12.340;2023-11-19T01:50:28;5.30;99.90
2062;DHT22;11070;51.336;12.340;2023-11-19T01:52:54;5.30;99.90
2062;DHT22;11070;51.336;12.340;2023-11-19T01:55:21;5.30;99.90
2062;DHT22;11070;51.336;12.340;2023-11-19T01:57:48;5.30;99.90
2062;DHT22;11070;51.336;12.340;2023-11-19T02:00:15;5.30;99.90
2062;DHT22;11070;51.336;12.340;2023-11-19T02:02:42;5.30;99.90
2062;DHT22;11070;51.336;12.340;2023-11-19T02:05:09;5.30;99.90
2062;DHT22;11070;51.336;12.340;2023-11-19T02:07:35;5.30;99.90
2062;DHT22;11070;51.336;12.340;2023-11-19T02:10:01;5.30;99.90
2062;DHT22;11070;51.336;12.340;2023-11-19T02:12:28;5.30;99.90
2062;DHT22;11070;51.336;12.340;2023-11-19T02:14:54;5.40;99.90
2062;DHT22;11070;51.336;12.340;2023-11-19T02:17:30;5.40;99.90
2062;DHT22;11070;51.336;12.340;2023-11-19T02:20:00;5.40;99.90
2062;DHT22;11070;51.336;12.340;2023-11-19T02:22:25;5.40;99.90
2062;DHT22;11070;51.336;12.340;2023-11-19T02:24:57;5.30;99.90
2062;DHT22;11070;51.336;12.340;2023-11-19T02:27:49;5.30;99.90
2062;DHT22;11070;51.336;12.340;2023-11-19T02:30:16;5.30;99.90
2062;DHT22;11070;51.336;12.340;2023-11-19T02:32:42;5.30;99.90
2062;DHT22;11070;51.336;12.340;2023-11-19T02:35:08;5.30;99.90
2062;DHT22;11070;51.336;12.340;2023-11-19T02:37:38;5.40;99.90
2062;DHT22;11070;51.336;12.340;2023-11-19T02:40:05;5.30;99.90
2062;DHT22;11070;51.336;12.340;2023-11-19T02:42:34;5.30;99.90
2062;DHT22;11070;51.336;12.340;2023-11-19T02:44:59;5.30;99.90
2062;DHT22;11070;51.336;12.340;2023-11-19T02:47:25;5.40;99.90
2062;DHT22;11070;51.336;12.340;2023-11-19T02:49:51;5.40;99.90
2062;DHT22;11070;51.336;12.340;2023-11-19T02:52:18;5.40;99.90
2062;DHT22;11070;51.336;12.340;2023-11-19T02:54:44;5.40;99.90
2062;DHT22;11070;51.336;12.340;2023-11-19T02:57:10;5.50;99.90
2062;DHT22;11070;51.336;12.340;2023-11-19T02:59:39;5.50;99.90
2062;DHT22;11070;51.336;12.340;2023-11-19T03:02:07;5.50;99.90
2062;DHT22;11070;51.336;12.340;2023-11-19T03:04:39;5.50;99.90
2062;DHT22;11070;51.336;12.340;2023-11-19T03:07:06;5.50;99.90
2062;DHT22;11070;51.336;12.340;2023-11-19T03:09:35;5.50;99.90
2062;DHT22;11070;51.336;12.340;2023-11-19T03:12:01;5.60;99.90
2062;DHT22;11070;51.336;12.340;2023-11-19T03:14:27;5.60;99.90
2062;DHT22;11070;51.336;12.340;2023-11-19T03:16:53;5.60;99.90
2062;DHT22;11070;51.336;12.340;2023-11-19T03:19:19;5.70;99.90
2062;DHT22;11070;51.336;12.340;2023-11-19T03:21:45;5.70;99.90
2062;DHT22;11070;51.336;12.340;2023-11-19T03:24:13;5.70;99.90
2062;DHT22;11070;51.336;12.340;2023-11-19T03:26:39;5.80;99.90
2062;DHT22;11070;51.336;12.340;2023-11-19T03:29:05;5.80;99.90
2062;DHT22;11070;51.336;12.340;2023-11-19T03:31:31;5.90;99.90
2062;DHT22;11070;51.336;12.340;2023-11-19T03:33:56;5.90;99.90
2062;DHT22;11070;51.336;12.340;2023-11-19T03:36:22;5.90;99.90
2062;DHT22;11070;51.336;12.340;2023-11-19T03:38:48;6.00;99.90
2062;DHT22;11070;51.336;12.340;2023-11-19T03:41:16;6.00;99.90
2062;DHT22;11070;51.336;12.340;2023-11-19T03:43:42;6.00;99.90
2062;DHT22;11070;51.336;12.340;2023-11-19T03:46:21;6.00;99.90
2062;DHT22;11070;51.336;12.340;2023-11-19T03:48:48;5.90;99.90
2062;DHT22;11070;51.336;12.340;2023-11-19T03:51:14;5.90;99.90
2062;DHT22;11070;51.336;12.340;2023-11-19T03:53:42;6.00;99.90
2062;DHT22;11070;51.336;12.340;2023-11-19T03:56:09;6.00;99.90
2062;DHT22;11070;51.336;12.340;2023-11-19T03:58:38;6.00;99.90
2062;DHT22;11070;51.336;12.340;2023-11-19T04:01:05;6.00;99.90
2062;DHT22;11070;51.336;12.340;2023-11-19T04:03:31;6.00;99.90
2062;DHT22;11070;51.336;12.340;2023-11-19T04:05:56;6.00;99.90
2062;DHT22;11070;51.336;12.340;2023-11-19T04:08:22;6.00;99.90
2062;DHT22;11070;51.336;12.340;2023-11-19T04:10:48;6.00;99.90
2062;DHT22;11070;51.336;12.340;2023-11-19T04:13:14;6.10;99.90
2062;DHT22;11070;51.336;12.340;2023-11-19T04:15:40;6.10;99.90
2062;DHT22;11070;51.336;12.340;2023-11-19T04:18:05;6.20;99.90
2062;DHT22;11070;51.336;12.340;2023-11-19T04:20:31;6.20;99.90
2062;DHT22;11070;51.336;12.340;2023-11-19T04:22:57;6.30;99.90
2062;DHT22;11070;51.336;12.340;2023-11-19T04:25:23;6.30;99.90
2062;DHT22;11070;51.336;12.340;2023-11-19T04:27:51;6.30;99.90
2062;DHT22;11070;51.336;12.340;2023-11-19T04:30:17;6.40;99.90
2062;DHT22;11070;51.336;12.340;2023-11-19T04:32:44;6.40;99.90
2062;DHT22;11070;51.336;12.340;2023-11-19T04:35:09;6.40;99.90
2062;DHT22;11070;51.336;12.340;2023-11-19T04:37:36;6.40;99.90
2062;DHT22;11070;51.336;12.340;2023-11-19T04:40:02;6.40;99.90
2062;DHT22;11070;51.336;12.340;2023-11-19T04:42:28;6.50;99.90
2062;DHT22;11070;51.336;12.340;2023-11-19T04:44:55;6.50;99.90
2062;DHT22;11070;51.336;12.340;2023-11-19T04:47:21;6.50;99.90
2062;DHT22;11070;51.336;12.340;2023-11-19T04:49:46;6.50;99.90
2062;DHT22;11070;51.336;12.340;2023-11-19T04:52:12;6.50;99.90
2062;DHT22;11070;51.336;12.340;2023-11-19T04:54:44;6.50;99.90
2062;DHT22;11070;51.336;12.340;2023-11-19T04:57:10;6.60;99.90
2062;DHT22;11070;51.336;12.340;2023-11-19T04:59:36;6.60;99.90
2062;DHT22;11070;51.336;12.340;2023-11-19T05:02:02;6.60;99.90
2062;DHT22;11070;51.336;12.340;2023-11-19T05:04:29;6.60;99.90
2062;DHT22;11070;51.336;12.340;2023-11-19T05:06:55;6.60;99.90
2062;DHT22;11070;51.336;12.340;2023-11-19T05:09:21;6.60;99.90
2062;DHT22;11070;51.336;12.340;2023-11-19T05:11:46;6.60;99.90
2062;DHT22;11070;51.336;12.340;2023-11-19T05:14:12;6.60;99.90
2062;DHT22;11070;51.336;12.340;2023-11-19T05:16:41;6.60;99.90
2062;DHT22;11070;51.336;12.340;2023-11-19T05:19:08;6.70;99.90
2062;DHT22;11070;51.336;12.340;2023-11-19T05:21:34;6.70;99.90
2062;DHT22;11070;51.336;12.340;2023-11-19T05:24:01;6.70;99.90
2062;DHT22;11070;51.336;12.340;2023-11-19T05:26:30;6.70;99.90
2062;DHT22;11070;51.336;12.340;2023-11-19T05:28:56;6.80;99.90
2062;DHT22;11070;51.336;12.340;2023-11-19T05:31:21;6.80;99.90
2062;DHT22;11070;51.336;12.340;2023-11-19T05:33:47;6.80;99.90
2062;DHT22;11070;51.336;12.340;2023-11-19T05:36:13;6.90;99.90
2062;DHT22;11070;51.336;12.340;2023-11-19T05:38:39;6.80;99.90
2062;DHT22;11070;51.336;12.340;2023-11-19T05:41:05;6.90;99.90
2062;DHT22;11070;51.336;12.340;2023-11-19T05:43:31;6.90;99.90
2062;DHT22;11070;51.336;12.340;2023-11-19T05:45:57;7.00;99.90
2062;DHT22;11070;51.336;12.340;2023-11-19T05:48:24;7.00;99.90
2062;DHT22;11070;51.336;12.340;2023-11-19T05:50:50;7.00;99.90
2062;DHT22;11070;51.336;12.340;2023-11-19T05:53:16;7.10;99.90
2062;DHT22;11070;51.336;12.340;2023-11-19T05:55:41;7.10;99.90
2062;DHT22;11070;51.336;12.340;2023-11-19T05:58:26;7.10;99.90
2062;DHT22;11070;51.336;12.340;2023-11-19T06:00:56;7.20;99.90
2062;DHT22;11070;51.336;12.340;2023-11-19T06:03:22;7.20;99.90
2062;DHT22;11070;51.336;12.340;2023-11-19T06:05:48;7.20;99.90
2062;DHT22;11070;51.336;12.340;2023-11-19T06:08:14;7.30;99.90
2062;DHT22;11070;51.336;12.340;2023-11-19T06:10:44;7.30;99.90
2062;DHT22;11070;51.336;12.340;2023-11-19T06:13:14;7.40;99.90
2062;DHT22;11070;51.336;12.340;2023-11-19T06:15:43;7.40;99.90
2062;DHT22;11070;51.336;12.340;2023-11-19T06:18:09;7.40;99.90
2062;DHT22;11070;51.336;12.340;2023-11-19T06:20:36;7.50;99.90
2062;DHT22;11070;51.336;12.340;2023-11-19T06:23:02;7.40;99.90
2062;DHT22;11070;51.336;12.340;2023-11-19T06:25:28;7.50;99.90
2062;DHT22;11070;51.336;12.340;2023-11-19T06:27:54;7.50;99.90
2062;DHT22;11070;51.336;12.340;2023-11-19T06:30:19;7.50;99.90
2062;DHT22;11070;51.336;12.340;2023-11-19T06:32:46;7.50;99.90
2062;DHT22;11070;51.336;12.340;2023-11-19T06:35:12;7.50;99.90
2062;DHT22;11070;51.336;12.340;2023-11-19T06:37:39;7.60;99.90
2062;DHT22;11070;51.336;12.340;2023-11-19T06:40:06;7.60;99.90
2062;DHT22;11070;51.336;12.340;2023-11-19T06:42:32;7.60;99.90
2062;DHT22;11070;51.336;12.340;2023-11-19T06:44:58;7.60;99.90
2062;DHT22;11070;51.336;12.340;2023-11-19T06:47:27;7.60;99.90
2062;DHT22;11070;51.336;12.340;2023-11-19T06:49:53;7.60;99.90
2062;DHT22;11070;51.336;12.340;2023-11-19T06:52:19;7.60;99.90
2062;DHT22;11070;51.336;12.340;2023-11-19T06:54:45;7.70;99.90
2062;DHT22;11070;51.336;12.340;2023-11-19T06:57:13;7.70;99.90
2062;DHT22;11070;51.336;12.340;2023-11-19T06:59:39;7.70;99.90
2062;DHT22;11070;51.336;12.340;2023-11-19T07:02:06;7.70;99.90
2062;DHT22;11070;51.336;12.340;2023-11-19T07:04:32;7.70;99.90
2062;DHT22;11070;51.336;12.340;2023-11-19T07:06:59;7.70;99.90
2062;DHT22;11070;51.336;12.340;2023-11-19T07:09:25;7.70;99.90
2062;DHT22;11070;51.336;12.340;2023-11-19T07:11:51;7.80;99.90
2062;DHT22;11070;51.336;12.340;2023-11-19T07:14:18;7.80;99.90
2062;DHT22;11070;51.336;12.340;2023-11-19T07:16:44;7.80;99.90
2062;DHT22;11070;51.336;12.340;2023-11-19T07:19:10;7.90;99.90
2062;DHT22;11070;51.336;12.340;2023-11-19T07:21:36;7.90;99.90
2062;DHT22;11070;51.336;12.340;2023-11-19T07:24:10;8.00;99.90
2062;DHT22;11070;51.336;12.340;2023-11-19T07:26:39;8.00;99.90
2062;DHT22;11070;51.336;12.340;2023-11-19T07:29:05;8.10;99.90
2062;DHT22;11070;51.336;12.340;2023-11-19T07:31:33;8.10;99.90
2062;DHT22;11070;51.336;12.340;2023-11-19T07:33:58;8.10;99.90
2062;DHT22;11070;51.336;12.340;2023-11-19T07:36:24;8.20;99.90
2062;DHT22;11070;51.336;12.340;2023-11-19T07:38:49;8.20;99.90
2062;DHT22;11070;51.336;12.340;2023-11-19T07:41:16;8.30;99.90
2062;DHT22;11070;51.336;12.340;2023-11-19T07:43:43;8.30;99.90
2062;DHT22;11070;51.336;12.340;2023-11-19T07:46:13;8.40;99.90
2062;DHT22;11070;51.336;12.340;2023-11-19T07:48:39;8.40;99.90
2062;DHT22;11070;51.336;12.340;2023-11-19T07:51:06;8.50;99.90
2062;DHT22;11070;51.336;12.340;2023-11-19T07:53:32;8.50;99.90
2062;DHT22;11070;51.336;12.340;2023-11-19T07:56:01;8.60;99.90
2062;DHT22;11070;51.336;12.340;2023-11-19T07:58:26;8.60;99.90
2062;DHT22;11070;51.336;12.340;2023-11-19T08:00:52;8.70;99.90
2062;DHT22;11070;51.336;12.340;2023-11-19T08:03:18;8.70;99.90
2062;DHT22;11070;51.336;12.340;2023-11-19T08:05:49;8.80;99.90
2062;DHT22;11070;51.336;12.340;2023-11-19T08:08:15;8.80;99.90
2062;DHT22;11070;51.336;12.340;2023-11-19T08:10:41;8.90;99.90
2062;DHT22;11070;51.336;12.340;2023-11-19T08:13:07;8.90;99.90
2062;DHT22;11070;51.336;12.340;2023-11-19T08:15:33;9.00;99.90
2062;DHT22;11070;51.336;12.340;2023-11-19T08:17:58;9.00;99.90
2062;DHT22;11070;51.336;12.340;2023-11-19T08:20:24;9.00;99.90
2062;DHT22;11070;51.336;12.340;2023-11-19T08:22:50;9.10;99.90
2062;DHT22;11070;51.336;12.340;2023-11-19T08:25:16;9.10;99.90
2062;DHT22;11070;51.336;12.340;2023-11-19T08:27:41;9.20;99.90
2062;DHT22;11070;51.336;12.340;2023-11-19T08:30:08;9.20;99.90
2062;DHT22;11070;51.336;12.340;2023-11-19T08:32:34;9.30;99.90
2062;DHT22;11070;51.336;12.340;2023-11-19T08:35:01;9.40;99.90
2062;DHT22;11070;51.336;12.340;2023-11-19T08:37:26;9.70;99.90
2062;DHT22;11070;51.336;12.340;2023-11-19T08:39:52;9.80;99.90
2062;DHT22;11070;51.336;12.340;2023-11-19T08:42:18;10.20;99.90
2062;DHT22;11070;51.336;12.340;2023-11-19T08:44:48;11.10;99.90
2062;DHT22;11070;51.336;12.340;2023-11-19T08:47:18;11.90;99.90
2062;DHT22;11070;51.336;12.340;2023-11-19T08:49:45;12.30;99.90
2062;DHT22;11070;51.336;12.340;2023-11-19T08:52:11;12.30;99.90
2062;DHT22;11070;51.336;12.340;2023-11-19T08:54:36;12.00;99.90
2062;DHT22;11070;51.336;12.340;2023-11-19T08:57:03;11.70;99.90
2062;DHT22;11070;51.336;12.340;2023-11-19T08:59:32;11.50;99.90
2062;DHT22;11070;51.336;12.340;2023-11-19T09:01:57;11.50;99.90
2062;DHT22;11070;51.336;12.340;2023-11-19T09:04:23;12.10;99.90
2062;DHT22;11070;51.336;12.340;2023-11-19T09:06:49;11.80;99.90
2062;DHT22;11070;51.336;12.340;2023-11-19T09:09:15;11.60;99.90
2062;DHT22;11070;51.336;12.340;2023-11-19T09:11:41;11.40;99.90
2062;DHT22;11070;51.336;12.340;2023-11-19T09:14:06;11.30;99.90
2062;DHT22;11070;51.336;12.340;2023-11-19T09:16:34;11.20;99.90
2062;DHT22;11070;51.336;12.340;2023-11-19T09:19:00;11.30;99.90
2062;DHT22;11070;51.336;12.340;2023-11-19T09:21:27;11.30;99.90
2062;DHT22;11070;51.336;12.340;2023-11-19T09:23:55;11.20;99.90
2062;DHT22;11070;51.336;12.340;2023-11-19T09:26:23;11.10;99.90
2062;DHT22;11070;51.336;12.340;2023-11-19T09:28:48;11.10;99.90
2062;DHT22;11070;51.336;12.340;2023-11-19T09:33:40;11.00;99.90
2062;DHT22;11070;51.336;12.340;2023-11-19T09:36:06;11.00;99.90
2062;DHT22;11070;51.336;12.340;2023-11-19T09:38:32;11.00;99.90
2062;DHT22;11070;51.336;12.340;2023-11-19T09:41:00;11.00;99.90
2062;DHT22;11070;51.336;12.340;2023-11-19T09:43:27;11.00;99.90
2062;DHT22;11070;51.336;12.340;2023-11-19T09:45:55;11.00;99.90
2062;DHT22;11070;51.336;12.340;2023-11-19T09:48:21;11.00;99.90
2062;DHT22;11070;51.336;12.340;2023-11-19T09:50:50;11.10;99.90
2062;DHT22;11070;51.336;12.340;2023-11-19T09:53:17;11.10;99.90
2062;DHT22;11070;51.336;12.340;2023-11-19T09:55:43;11.20;99.90
2062;DHT22;11070;51.336;12.340;2023-11-19T09:58:11;11.20;99.90
2062;DHT22;11070;51.336;12.340;2023-11-19T10:00:39;11.20;99.90
2062;DHT22;11070;51.336;12.340;2023-11-19T10:03:06;11.20;99.90
2062;DHT22;11070;51.336;12.340;2023-11-19T10:05:33;11.20;99.90
2062;DHT22;11070;51.336;12.340;2023-11-19T10:07:58;11.20;99.90
2062;DHT22;11070;51.336;12.340;2023-11-19T10:10:24;11.30;99.90
2062;DHT22;11070;51.336;12.340;2023-11-19T10:12:52;11.30;99.90
2062;DHT22;11070;51.336;12.340;2023-11-19T10:15:25;11.20;99.90
2062;DHT22;11070;51.336;12.340;2023-11-19T10:17:58;11.20;99.90
2062;DHT22;11070;51.336;12.340;2023-11-19T10:20:23;11.30;99.90
2062;DHT22;11070;51.336;12.340;2023-11-19T10:22:55;11.30;99.90
2062;DHT22;11070;51.336;12.340;2023-11-19T10:25:25;11.30;99.90
2062;DHT22;11070;51.336;12.340;2023-11-19T10:27:52;11.30;99.90
2062;DHT22;11070;51.336;12.340;2023-11-19T10:30:24;11.40;99.90
2062;DHT22;11070;51.336;12.340;2023-11-19T10:33:09;11.40;99.90
2062;DHT22;11070;51.336;12.340;2023-11-19T10:35:54;11.60;99.90
2062;DHT22;11070;51.336;12.340;2023-11-19T10:38:22;11.80;99.90
2062;DHT22;11070;51.336;12.340;2023-11-19T10:40:49;11.80;99.90
2062;DHT22;11070;51.336;12.340;2023-11-19T10:43:19;11.80;99.90
2062;DHT22;11070;51.336;12.340;2023-11-19T10:45:45;12.00;99.90
2062;DHT22;11070;51.336;12.340;2023-11-19T10:48:11;12.10;99.90
2062;DHT22;11070;51.336;12.340;2023-11-19T10:50:39;12.50;99.90
2062;DHT22;11070;51.336;12.340;2023-11-19T10:53:07;12.70;99.90
2062;DHT22;11070;51.336;12.340;2023-11-19T10:55:35;13.40;99.90
2062;DHT22;11070;51.336;12.340;2023-11-19T10:58:02;14.60;99.90
2062;DHT22;11070;51.336;12.340;2023-11-19T11:00:47;15.50;99.90
2062;DHT22;11070;51.336;12.340;2023-11-19T11:03:20;15.50;99.90
2062;DHT22;11070;51.336;12.340;2023-11-19T11:05:50;15.60;99.90
2062;DHT22;11070;51.336;12.340;2023-11-19T11:08:17;16.00;99.90
2062;DHT22;11070;51.336;12.340;2023-11-19T11:13:16;16.80;99.90
2062;DHT22;11070;51.336;12.340;2023-11-19T11:15:42;17.10;99.90
2062;DHT22;11070;51.336;12.340;2023-11-19T11:18:09;17.40;99.90
2062;DHT22;11070;51.336;12.340;2023-11-19T11:20:35;17.50;99.90
2062;DHT22;11070;51.336;12.340;2023-11-19T11:29:01;16.90;99.90
2062;DHT22;11070;51.336;12.340;2023-11-19T11:39:40;17.30;99.90
2062;DHT22;11070;51.336;12.340;2023-11-19T11:45:05;17.80;99.90
2062;DHT22;11070;51.336;12.340;2023-11-19T11:55:25;19.00;99.90
2062;DHT22;11070;51.336;12.340;2023-11-19T11:57:51;19.80;99.90
2062;DHT22;11070;51.336;12.340;2023-11-19T12:00:30;21.30;98.90
2062;DHT22;11070;51.336;12.340;2023-11-19T12:02:57;21.50;98.80
2062;DHT22;11070;51.336;12.340;2023-11-19T12:05:24;22.40;94.00
2062;DHT22;11070;51.336;12.340;2023-11-19T12:07:57;23.60;91.20
2062;DHT22;11070;51.336;12.340;2023-11-19T12:10:25;22.60;85.90
2062;DHT22;11070;51.336;12.340;2023-11-19T12:12:58;20.90;87.40
2062;DHT22;11070;51.336;12.340;2023-11-19T12:15:25;20.60;90.40
2062;DHT22;11070;51.336;12.340;2023-11-19T12:17:53;20.30;89.80
2062;DHT22;11070;51.336;12.340;2023-11-19T12:20:24;20.20;90.10
2062;DHT22;11070;51.336;12.340;2023-11-19T12:22:50;20.50;90.60
2062;DHT22;11070;51.336;12.340;2023-11-19T12:25:17;20.90;88.80
2062;DHT22;11070;51.336;12.340;2023-11-19T12:27:48;20.50;87.90
2062;DHT22;11070;51.336;12.340;2023-11-19T12:30:26;19.80;88.30
2062;DHT22;11070;51.336;12.340;2023-11-19T12:32:54;19.20;90.20
2062;DHT22;11070;51.336;12.340;2023-11-19T12:35:20;19.10;90.30
2062;DHT22;11070;51.336;12.340;2023-11-19T12:37:53;19.00;91.60
2062;DHT22;11070;51.336;12.340;2023-11-19T12:40:23;19.00;91.00
2062;DHT22;11070;51.336;12.340;2023-11-19T12:42:53;18.20;91.90
2062;DHT22;11070;51.336;12.340;2023-11-19T12:45:44;17.00;93.70
2062;DHT22;11070;51.336;12.340;2023-11-19T12:48:09;16.10;96.60
2062;DHT22;11070;51.336;12.340;2023-11-19T12:50:56;15.60;99.10
2062;DHT22;11070;51.336;12.340;2023-11-19T12:53:27;15.60;99.80
2062;DHT22;11070;51.336;12.340;2023-11-19T12:55:56;15.20;99.90
2062;DHT22;11070;51.336;12.340;2023-11-19T12:58:34;15.00;99.90
2062;DHT22;11070;51.336;12.340;2023-11-19T13:01:08;15.00;99.90
2062;DHT22;11070;51.336;12.340;2023-11-19T13:03:38;14.90;99.90
2062;DHT22;11070;51.336;12.340;2023-11-19T13:06:14;14.70;99.90
2062;DHT22;11070;51.336;12.340;2023-11-19T13:08:49;14.60;99.90
2062;DHT22;11070;51.336;12.340;2023-11-19T13:11:34;14.70;99.90
2062;DHT22;11070;51.336;12.340;2023-11-19T13:14:06;14.70;99.90
2062;DHT22;11070;51.336;12.340;2023-11-19T13:16:37;14.70;99.90
2062;DHT22;11070;51.336;12.340;2023-11-19T13:19:04;14.60;99.90
2062;DHT22;11070;51.336;12.340;2023-11-19T13:21:31;14.70;99.90
2062;DHT22;11070;51.336;12.340;2023-11-19T13:23:57;14.80;99.90
2062;DHT22;11070;51.336;12.340;2023-11-19T13:26:22;15.00;99.90
2062;DHT22;11070;51.336;12.340;2023-11-19T13:28:48;14.90;99.90
2062;DHT22;11070;51.336;12.340;2023-11-19T13:31:14;14.80;99.90
2062;DHT22;11070;51.336;12.340;2023-11-19T13:33:41;14.70;99.90
2062;DHT22;11070;51.336;12.340;2023-11-19T13:36:07;14.70;99.90
2062;DHT22;11070;51.336;12.340;2023-11-19T13:38:36;14.60;99.90
2062;DHT22;11070;51.336;12.340;2023-11-19T13:41:05;14.50;99.90
2062;DHT22;11070;51.336;12.340;2023-11-19T13:43:31;14.40;99.90
2062;DHT22;11070;51.336;12.340;2023-11-19T13:45:57;14.30;99.90
2062;DHT22;11070;51.336;12.340;2023-11-19T13:48:24;14.20;99.90
2062;DHT22;11070;51.336;12.340;2023-11-19T13:50:50;14.10;99.90
2062;DHT22;11070;51.336;12.340;2023-11-19T13:53:16;14.00;99.90
2062;DHT22;11070;51.336;12.340;2023-11-19T13:55:42;13.90;99.90
2062;DHT22;11070;51.336;12.340;2023-11-19T13:58:09;13.80;99.90
2062;DHT22;11070;51.336;12.340;2023-11-19T14:00:34;13.80;99.90
2062;DHT22;11070;51.336;12.340;2023-11-19T14:03:00;13.80;99.90
2062;DHT22;11070;51.336;12.340;2023-11-19T14:05:26;13.80;99.90
2062;DHT22;11070;51.336;12.340;2023-11-19T14:07:52;14.00;99.90
2062;DHT22;11070;51.336;12.340;2023-11-19T14:10:19;14.00;99.90
2062;DHT22;11070;51.336;12.340;2023-11-19T14:12:45;14.00;99.90
2062;DHT22;11070;51.336;12.340;2023-11-19T14:15:11;14.00;99.90
2062;DHT22;11070;51.336;12.340;2023-11-19T14:17:40;14.00;99.90
2062;DHT22;11070;51.336;12.340;2023-11-19T14:20:06;14.00;99.90
2062;DHT22;11070;51.336;12.340;2023-11-19T14:22:41;14.00;99.90
2062;DHT22;11070;51.336;12.340;2023-11-19T14:25:09;14.00;99.90
2062;DHT22;11070;51.336;12.340;2023-11-19T14:27:40;13.80;99.90
2062;DHT22;11070;51.336;12.340;2023-11-19T14:30:08;13.70;99.90
2062;DHT22;11070;51.336;12.340;2023-11-19T14:32:36;13.60;99.90
2062;DHT22;11070;51.336;12.340;2023-11-19T14:35:03;13.50;99.90
2062;DHT22;11070;51.336;12.340;2023-11-19T14:37:29;13.40;99.90
2062;DHT22;11070;51.336;12.340;2023-11-19T14:39:58;13.40;99.90
2062;DHT22;11070;51.336;12.340;2023-11-19T14:42:24;13.30;99.90
2062;DHT22;11070;51.336;12.340;2023-11-19T14:44:53;13.30;99.90
2062;DHT22;11070;51.336;12.340;2023-11-19T14:47:20;13.20;99.90
2062;DHT22;11070;51.336;12.340;2023-11-19T14:49:46;13.20;99.90
2062;DHT22;11070;51.336;12.340;2023-11-19T14:52:11;13.20;99.90
2062;DHT22;11070;51.336;12.340;2023-11-19T14:54:37;13.20;99.90
2062;DHT22;11070;51.336;12.340;2023-11-19T14:57:04;13.20;99.90
2062;DHT22;11070;51.336;12.340;2023-11-19T14:59:30;13.20;99.90
2062;DHT22;11070;51.336;12.340;2023-11-19T15:01:57;13.20;99.90
2062;DHT22;11070;51.336;12.340;2023-11-19T15:04:22;13.20;99.90
2062;DHT22;11070;51.336;12.340;2023-11-19T15:06:48;13.10;99.90
2062;DHT22;11070;51.336;12.340;2023-11-19T15:09:14;13.10;99.90
2062;DHT22;11070;51.336;12.340;2023-11-19T15:11:43;13.00;99.90
2062;DHT22;11070;51.336;12.340;2023-11-19T15:14:12;13.00;99.90
2062;DHT22;11070;51.336;12.340;2023-11-19T15:16:40;12.90;99.90
2062;DHT22;11070;51.336;12.340;2023-11-19T15:19:06;12.90;99.90
2062;DHT22;11070;51.336;12.340;2023-11-19T15:21:34;12.90;99.90
2062;DHT22;11070;51.336;12.340;2023-11-19T15:24:00;12.80;99.90
2062;DHT22;11070;51.336;12.340;2023-11-19T15:26:26;12.80;99.90
2062;DHT22;11070;51.336;12.340;2023-11-19T15:28:52;12.80;99.90
2062;DHT22;11070;51.336;12.340;2023-11-19T15:31:22;12.70;99.90
2062;DHT22;11070;51.336;12.340;2023-11-19T15:33:48;12.70;99.90
2062;DHT22;11070;51.336;12.340;2023-11-19T15:36:14;12.60;99.90
2062;DHT22;11070;51.336;12.340;2023-11-19T15:38:40;12.60;99.90
2062;DHT22;11070;51.336;12.340;2023-11-19T15:41:06;12.60;99.90
2062;DHT22;11070;51.336;12.340;2023-11-19T15:43:33;12.50;99.90
2062;DHT22;11070;51.336;12.340;2023-11-19T15:45:59;12.50;99.90
2062;DHT22;11070;51.336;12.340;2023-11-19T15:48:24;12.50;99.90
2062;DHT22;11070;51.336;12.340;2023-11-19T15:50:51;12.50;99.90
2062;DHT22;11070;51.336;12.340;2023-11-19T15:53:17;12.50;99.90
2062;DHT22;11070;51.336;12.340;2023-11-19T15:55:44;12.50;99.90
2062;DHT22;11070;51.336;12.340;2023-11-19T15:58:10;12.40;99.90
2062;DHT22;11070;51.336;12.340;2023-11-19T16:00:36;12.40;99.90
2062;DHT22;11070;51.336;12.340;2023-11-19T16:03:02;12.40;99.90
2062;DHT22;11070;51.336;12.340;2023-11-19T16:05:28;12.40;99.90
2062;DHT22;11070;51.336;12.340;2023-11-19T16:07:53;12.40;99.90
2062;DHT22;11070;51.336;12.340;2023-11-19T16:10:19;12.40;99.90